Germes — UBAI6 — position and weather

sailwx.info

Track history (hours):
 
Tides and Currents Weather Stations Pressure Air Temp Water Temp Dewpoint Dewpoint Depression Visibility Wind Speed Wind Dir Waves Ship Positions

Germes

Last reported at 2017-Dec-11 17:00 UTC. Time now 2017-Dec-11 19:22 UTC.
Position N 45°17' E 036°33'.

Length 28 m; draft 2.9 m.

Type: Tug. MMSI: 273359640.

Date/timePositionNaut miles runAvg speedWind from/ knotsBaromVisibWave heightAir tempDewpointWater temp
2017-Dec-11 17:00N 45°17' E 036°33'0 0.0
2017-Dec-11 16:30N 45°17' E 036°33'0 0.0
2017-Dec-11 15:55N 45°17' E 036°33'0 0.0
2017-Dec-11 15:30N 45°17' E 036°33'0 0.0
2017-Dec-11 15:00N 45°17' E 036°33'0 0.0
2017-Dec-11 14:30N 45°17' E 036°33'0 0.0
2017-Dec-11 14:00N 45°17' E 036°33'0 0.0
2017-Dec-11 13:30N 45°17' E 036°33'0 0.0
2017-Dec-11 13:00N 45°17' E 036°33'0 0.0
2017-Dec-11 12:30N 45°17' E 036°33'0 0.0
2017-Dec-11 12:00N 45°17' E 036°33'0 0.0
2017-Dec-11 11:30N 45°17' E 036°33'0 0.0
2017-Dec-11 11:00N 45°17' E 036°33'0 0.0
2017-Dec-11 10:30N 45°17' E 036°33'0 0.0
2017-Dec-11 10:00N 45°17' E 036°33'0 0.0
2017-Dec-11 09:30N 45°17' E 036°33'0 0.0
2017-Dec-11 09:00N 45°17' E 036°33'0 0.0
2017-Dec-11 08:30N 45°17' E 036°33'0 0.0
2017-Dec-11 08:00N 45°17' E 036°33'3 6.4
2017-Dec-11 07:30N 45°20' E 036°30'1 2.1
2017-Dec-11 07:00N 45°20' E 036°28'0 0.0
2017-Dec-11 06:29N 45°20' E 036°28'0 0.0
2017-Dec-11 05:53N 45°20' E 036°28'0 0.0
2017-Dec-11 05:28N 45°20' E 036°28'0 0.0
2017-Dec-11 04:45N 45°20' E 036°28'0 0.0
2017-Dec-11 03:45N 45°20' E 036°28'0 0.0
2017-Dec-11 02:46N 45°20' E 036°28'0 0.0
2017-Dec-11 02:20N 45°20' E 036°28'0 0.0
2017-Dec-11 01:59N 45°20' E 036°28'0 0.0
2017-Dec-11 00:53N 45°20' E 036°28'0 0.0
2017-Dec-10 21:33N 45°20' E 036°28'0 0.2
2017-Dec-10 21:30N 45°20' E 036°28'0 0.0
2017-Dec-10 20:57N 45°20' E 036°28'0 0.0
2017-Dec-10 20:11N 45°20' E 036°28'0 0.0
2017-Dec-10 20:00N 45°20' E 036°28'0 0.0
2017-Dec-10 13:33N 45°20' E 036°28'0 0.1
2017-Dec-10 13:30N 45°20' E 036°28'0 0.0
2017-Dec-10 12:55N 45°20' E 036°28'2 5.6
2017-Dec-10 12:30N 45°19' E 036°31'2 4.0
2017-Dec-10 12:00N 45°17' E 036°33'0 0.0
2017-Dec-10 11:30N 45°17' E 036°33'0 0.0
2017-Dec-10 11:00N 45°17' E 036°33'0 0.0
2017-Dec-10 10:30N 45°17' E 036°33'0 0.0
2017-Dec-10 10:00N 45°17' E 036°33'0 0.0
2017-Dec-10 09:30N 45°17' E 036°33'0 0.0
2017-Dec-10 09:00N 45°17' E 036°33'2 3.4
2017-Dec-10 08:30N 45°18' E 036°32'2 4.6
2017-Dec-10 08:00N 45°20' E 036°29'2 4.1
2017-Dec-10 07:30N 45°19' E 036°31'2 3.9
2017-Dec-10 07:00N 45°17' E 036°33'2 4.4
2017-Dec-10 06:30N 45°19' E 036°31'2 3.4
2017-Dec-10 06:00N 45°20' E 036°29'1 0.8
2017-Dec-10 04:59N 45°20' E 036°28'0 0.0
2017-Dec-09 16:35N 45°20' E 036°29'0 0.1
2017-Dec-09 15:25N 45°20' E 036°28'0 0.0
2017-Dec-09 14:58N 45°20' E 036°28'0 0.0
2017-Dec-09 14:27N 45°20' E 036°28'0 0.1
2017-Dec-09 13:57N 45°20' E 036°29'0 0.0
2017-Dec-09 13:27N 45°20' E 036°29'0 0.8
2017-Dec-09 13:00N 45°20' E 036°29'0 0.0
2017-Dec-09 12:27N 45°20' E 036°29'0 0.0
2017-Dec-09 11:57N 45°20' E 036°29'0 0.7
2017-Dec-09 11:29N 45°20' E 036°29'0 0.0
2017-Dec-09 04:14N 45°20' E 036°28'0 0.0
2017-Dec-08 23:32N 45°20' E 036°28'0 1.6
2017-Dec-08 23:30N 45°20' E 036°29'2 3.4
2017-Dec-08 23:00N 45°18' E 036°30'1 2.3
2017-Dec-08 22:28N 45°19' E 036°30'1 0.2
2017-Dec-08 16:37N 45°20' E 036°29'1 6.3
2017-Dec-08 16:30N 45°20' E 036°30'1 1.8
2017-Dec-08 15:59N 45°19' E 036°30'0 0.4
2017-Dec-08 15:30N 45°19' E 036°30'0 0.0
2017-Dec-08 15:00N 45°19' E 036°30'1 1.0
2017-Dec-08 14:30N 45°18' E 036°31'2 4.2
2017-Dec-08 14:00N 45°17' E 036°33'0 0.0
2017-Dec-08 13:30N 45°17' E 036°33'0 0.0
2017-Dec-08 13:00N 45°17' E 036°33'0 0.0
2017-Dec-08 12:30N 45°17' E 036°33'0 0.0
2017-Dec-08 12:00N 45°17' E 036°33'0 0.0
2017-Dec-08 11:30N 45°17' E 036°33'0 0.0
2017-Dec-08 11:00N 45°17' E 036°33'0 0.0
2017-Dec-08 10:30N 45°17' E 036°33'0 0.0
2017-Dec-08 10:00N 45°17' E 036°33'1 2.1
2017-Dec-08 09:29N 45°18' E 036°32'3 4.9
2017-Dec-08 08:55N 45°20' E 036°30'0 0.4
2017-Dec-08 08:29N 45°20' E 036°29'0 0.0
2017-Dec-08 07:32N 45°20' E 036°29'0 0.0
2017-Dec-08 07:29N 45°20' E 036°29'0 0.0
2017-Dec-08 06:47N 45°20' E 036°29'0 0.0
2017-Dec-08 06:29N 45°20' E 036°29'0 0.0
2017-Dec-08 05:56N 45°20' E 036°29'0 0.0
2017-Dec-08 05:29N 45°20' E 036°29'0 0.0
2017-Dec-08 04:59N 45°20' E 036°29'0 0.0
2017-Dec-08 04:26N 45°20' E 036°29'0 0.0
2017-Dec-08 03:59N 45°20' E 036°29'0 0.0
2017-Dec-08 03:29N 45°20' E 036°29'0 0.0
2017-Dec-08 02:59N 45°20' E 036°29'0 0.0
2017-Dec-08 02:29N 45°20' E 036°29'0 0.0
2017-Dec-08 01:59N 45°20' E 036°29'0 0.0
2017-Dec-08 01:26N 45°20' E 036°29'0 0.0
2017-Dec-08 00:56N 45°20' E 036°29'0 0.0
2017-Dec-08 00:20N 45°20' E 036°29'0 0.0
2017-Dec-07 23:56N 45°20' E 036°29'0 0.0
2017-Dec-07 23:14N 45°20' E 036°29'0 0.0
2017-Dec-07 22:59N 45°20' E 036°29'0 0.0
2017-Dec-07 22:29N 45°20' E 036°29'0 0.0
2017-Dec-07 21:59N 45°20' E 036°29'0 0.0
2017-Dec-07 21:29N 45°20' E 036°29'0 0.0
2017-Dec-07 20:59N 45°20' E 036°29'0 0.0
2017-Dec-07 20:29N 45°20' E 036°29'0 0.0
2017-Dec-07 19:59N 45°20' E 036°29'0 0.0
2017-Dec-07 19:29N 45°20' E 036°29'0 0.0
2017-Dec-07 18:59N 45°20' E 036°29'0 0.0
2017-Dec-07 18:30N 45°20' E 036°29'0 0.0
2017-Dec-07 18:00N 45°20' E 036°29'0 0.0
2017-Dec-07 17:31N 45°20' E 036°29'0 0.0
2017-Dec-07 16:57N 45°20' E 036°29'0 0.0
2017-Dec-07 16:31N 45°20' E 036°29'3 6.1
2017-Dec-07 16:00N 45°18' E 036°32'1 1.8
2017-Dec-07 15:31N 45°17' E 036°33'2 4.8
2017-Dec-07 15:00N 45°19' E 036°30'0 0.7
2017-Dec-07 14:27N 45°19' E 036°31'2 3.3
2017-Dec-07 13:57N 45°20' E 036°29'2 4.0
2017-Dec-07 13:30N 45°19' E 036°31'2 4.6
2017-Dec-07 13:00N 45°17' E 036°33'0 0.0
2017-Dec-07 12:31N 45°17' E 036°33'0 0.0
2017-Dec-07 12:01N 45°17' E 036°33'0 0.0
2017-Dec-07 11:30N 45°17' E 036°33'0 0.0
2017-Dec-07 11:00N 45°17' E 036°33'0 0.1
2017-Dec-07 10:31N 45°17' E 036°33'0 0.1
2017-Dec-07 10:00N 45°17' E 036°33'0 0.0
2017-Dec-07 09:31N 45°17' E 036°33'0 0.0
2017-Dec-07 09:00N 45°17' E 036°33'0 0.0
2017-Dec-07 08:30N 45°17' E 036°33'0 0.0
2017-Dec-07 08:00N 45°17' E 036°33'0 0.0
2017-Dec-07 07:30N 45°17' E 036°33'0 0.0
2017-Dec-07 07:01N 45°17' E 036°33'0 0.0
2017-Dec-07 06:30N 45°17' E 036°33'1 1.7
2017-Dec-07 06:00N 45°18' E 036°32'2 3.5
2017-Dec-07 05:30N 45°19' E 036°30'1 2.9
2017-Dec-07 05:01N 45°20' E 036°29'0 0.0
2017-Dec-07 04:30N 45°20' E 036°29'0 0.0
2017-Dec-07 04:01N 45°20' E 036°29'0 0.0
2017-Dec-07 03:30N 45°20' E 036°29'0 0.0
2017-Dec-07 03:01N 45°20' E 036°29'1 0.7
2017-Dec-07 02:01N 45°20' E 036°30'0 0.0
2017-Dec-07 02:00N 45°20' E 036°30'0 0.0
2017-Dec-07 01:30N 45°20' E 036°30'0 0.0
2017-Dec-07 00:56N 45°20' E 036°30'0 0.0
2017-Dec-07 00:29N 45°20' E 036°30'0 0.0
2017-Dec-06 23:49N 45°20' E 036°30'0 0.0
2017-Dec-06 23:30N 45°20' E 036°30'0 0.0
2017-Dec-06 23:00N 45°20' E 036°30'0 0.0
2017-Dec-06 22:10N 45°20' E 036°30'0 0.0
2017-Dec-06 22:00N 45°20' E 036°30'0 0.0
2017-Dec-06 21:29N 45°20' E 036°30'  
2017-Dec-04 10:30N 45°20' E 036°29'1 1.2
2017-Dec-04 10:00N 45°20' E 036°29'0 0.1
2017-Dec-04 09:21N 45°20' E 036°29'0 0.0
2017-Dec-04 08:45N 45°20' E 036°29'0 0.0
2017-Dec-04 08:30N 45°20' E 036°29'0 0.0
2017-Dec-04 07:30N 45°20' E 036°29'0 0.0
2017-Dec-04 06:57N 45°20' E 036°29'0 0.0
2017-Dec-04 06:18N 45°20' E 036°29'0 0.0
2017-Dec-04 05:57N 45°20' E 036°29'0 0.0
2017-Dec-04 01:21N 45°20' E 036°29'0 0.0
2017-Dec-04 01:00N 45°20' E 036°29'0 0.0
2017-Dec-04 00:30N 45°20' E 036°29'0 0.0
2017-Dec-03 23:57N 45°20' E 036°29'0 0.0
2017-Dec-03 22:33N 45°20' E 036°29'0 0.0
2017-Dec-03 21:12N 45°20' E 036°29'0 0.0
2017-Dec-03 20:12N 45°20' E 036°29'0 0.0
2017-Dec-03 20:00N 45°20' E 036°29'0 0.0
2017-Dec-03 15:56N 45°20' E 036°29'0 0.0
2017-Dec-03 15:00N 45°20' E 036°29'1 2.1
2017-Dec-03 14:30N 45°19' E 036°30'0 0.3
2017-Dec-03 14:00N 45°19' E 036°30'1 0.2
2017-Dec-03 11:19N 45°20' E 036°30'0 0.0
2017-Dec-03 11:00N 45°20' E 036°30'0 0.1
2017-Dec-03 10:31N 45°20' E 036°30'1 2.4
2017-Dec-03 10:00N 45°19' E 036°30'0 0.2
2017-Dec-03 09:30N 45°19' E 036°30'0 0.0
2017-Dec-03 09:00N 45°19' E 036°30'0 0.1
2017-Dec-03 08:30N 45°19' E 036°30'0 0.5
2017-Dec-03 08:01N 45°19' E 036°30'0 0.1
2017-Dec-03 07:31N 45°19' E 036°30'1 1.5
2017-Dec-03 06:59N 45°19' E 036°30'1 1.7
2017-Dec-03 06:31N 45°20' E 036°30'0 0.1
2017-Dec-03 06:01N 45°20' E 036°30'1 2.7
2017-Dec-03 05:30N 45°19' E 036°30'0 0.5
2017-Dec-03 05:00N 45°19' E 036°31'2 3.3
2017-Dec-03 04:31N 45°20' E 036°29'1 0.2
2017-Dec-03 02:13N 45°20' E 036°29'0 0.0
2017-Dec-02 20:00N 45°20' E 036°29'1 0.6
2017-Dec-02 17:29N 45°19' E 036°30'3 5.5
2017-Dec-02 17:01N 45°17' E 036°33'0 0.9
2017-Dec-02 16:31N 45°17' E 036°33'0 0.0
2017-Dec-02 16:01N 45°17' E 036°33'0 0.0
2017-Dec-02 15:31N 45°17' E 036°33'0 0.0
2017-Dec-02 15:01N 45°17' E 036°33'0 0.0
2017-Dec-02 14:31N 45°17' E 036°33'0 0.2
2017-Dec-02 14:00N 45°17' E 036°33'0 0.0
2017-Dec-02 13:31N 45°17' E 036°33'0 0.0
2017-Dec-02 13:00N 45°17' E 036°33'0 0.0
2017-Dec-02 12:31N 45°17' E 036°33'0 0.0
2017-Dec-02 12:00N 45°17' E 036°33'0 0.0
2017-Dec-02 11:31N 45°17' E 036°33'0 0.0
2017-Dec-02 11:01N 45°17' E 036°33'0 0.0
2017-Dec-02 10:31N 45°17' E 036°33'0 0.0
2017-Dec-02 10:01N 45°17' E 036°33'0 0.0
2017-Dec-02 09:30N 45°17' E 036°33'2 4.0
2017-Dec-02 09:00N 45°18' E 036°31'2 3.5
2017-Dec-02 08:24N 45°20' E 036°29'1 1.3
2017-Dec-02 08:01N 45°20' E 036°29'1 1.4
2017-Dec-02 07:30N 45°19' E 036°30'0 0.0
2017-Dec-02 07:01N 45°19' E 036°30'0 0.0
2017-Dec-02 06:31N 45°19' E 036°30'0 0.0
2017-Dec-02 06:01N 45°19' E 036°30'0 0.6
2017-Dec-02 05:31N 45°20' E 036°30'0 0.6
2017-Dec-02 05:00N 45°20' E 036°29'0 0.3
2017-Dec-02 04:19N 45°20' E 036°29'0 0.0
2017-Dec-02 00:23N 45°20' E 036°29'0 0.0
2017-Dec-01 23:59N 45°20' E 036°29'0 0.0
2017-Dec-01 23:24N 45°20' E 036°29'0 0.0
2017-Dec-01 23:01N 45°20' E 036°29'0 0.0
2017-Dec-01 21:23N 45°20' E 036°29'0 0.0
2017-Dec-01 20:59N 45°20' E 036°29'0 0.0
2017-Dec-01 20:18N 45°20' E 036°29'0 0.0
2017-Dec-01 20:00N 45°20' E 036°29'0 0.0
2017-Dec-01 19:16N 45°20' E 036°29'0 0.0
2017-Dec-01 18:50N 45°20' E 036°29'0 0.0
2017-Dec-01 18:21N 45°20' E 036°29'0 0.0
2017-Dec-01 18:00N 45°20' E 036°29'0 0.0
2017-Dec-01 17:29N 45°20' E 036°29'  
Track history (hours):
 
Tides and Currents Weather Stations Pressure Air Temp Water Temp Dewpoint Dewpoint Depression Visibility Wind Speed Wind Dir Waves Ship Positions

Germes

Last reported at 2017-Dec-11 17:00 UTC. Time now 2017-Dec-11 19:22 UTC.
Position N 45°17' E 036°33'.

Length 28 m; draft 2.9 m.

Type: Tug. MMSI: 273359640.

Date/timePositionNaut miles runAvg speedWind from/ knotsBaromVisibWave heightAir tempDewpointWater temp
2017-Dec-11 17:00N 45°17' E 036°33'0 0.0
2017-Dec-11 16:30N 45°17' E 036°33'0 0.0
2017-Dec-11 15:55N 45°17' E 036°33'0 0.0
2017-Dec-11 15:30N 45°17' E 036°33'0 0.0
2017-Dec-11 15:00N 45°17' E 036°33'0 0.0
2017-Dec-11 14:30N 45°17' E 036°33'0 0.0
2017-Dec-11 14:00N 45°17' E 036°33'0 0.0
2017-Dec-11 13:30N 45°17' E 036°33'0 0.0
2017-Dec-11 13:00N 45°17' E 036°33'0 0.0
2017-Dec-11 12:30N 45°17' E 036°33'0 0.0
2017-Dec-11 12:00N 45°17' E 036°33'0 0.0
2017-Dec-11 11:30N 45°17' E 036°33'0 0.0
2017-Dec-11 11:00N 45°17' E 036°33'0 0.0
2017-Dec-11 10:30N 45°17' E 036°33'0 0.0
2017-Dec-11 10:00N 45°17' E 036°33'0 0.0
2017-Dec-11 09:30N 45°17' E 036°33'0 0.0
2017-Dec-11 09:00N 45°17' E 036°33'0 0.0
2017-Dec-11 08:30N 45°17' E 036°33'0 0.0
2017-Dec-11 08:00N 45°17' E 036°33'3 6.4
2017-Dec-11 07:30N 45°20' E 036°30'1 2.1
2017-Dec-11 07:00N 45°20' E 036°28'0 0.0
2017-Dec-11 06:29N 45°20' E 036°28'0 0.0
2017-Dec-11 05:53N 45°20' E 036°28'0 0.0
2017-Dec-11 05:28N 45°20' E 036°28'0 0.0
2017-Dec-11 04:45N 45°20' E 036°28'0 0.0
2017-Dec-11 03:45N 45°20' E 036°28'0 0.0
2017-Dec-11 02:46N 45°20' E 036°28'0 0.0
2017-Dec-11 02:20N 45°20' E 036°28'0 0.0
2017-Dec-11 01:59N 45°20' E 036°28'0 0.0
2017-Dec-11 00:53N 45°20' E 036°28'0 0.0
2017-Dec-10 21:33N 45°20' E 036°28'0 0.2
2017-Dec-10 21:30N 45°20' E 036°28'0 0.0
2017-Dec-10 20:57N 45°20' E 036°28'0 0.0
2017-Dec-10 20:11N 45°20' E 036°28'0 0.0
2017-Dec-10 20:00N 45°20' E 036°28'0 0.0
2017-Dec-10 13:33N 45°20' E 036°28'0 0.1
2017-Dec-10 13:30N 45°20' E 036°28'0 0.0
2017-Dec-10 12:55N 45°20' E 036°28'2 5.6
2017-Dec-10 12:30N 45°19' E 036°31'2 4.0
2017-Dec-10 12:00N 45°17' E 036°33'0 0.0
2017-Dec-10 11:30N 45°17' E 036°33'0 0.0
2017-Dec-10 11:00N 45°17' E 036°33'0 0.0
2017-Dec-10 10:30N 45°17' E 036°33'0 0.0
2017-Dec-10 10:00N 45°17' E 036°33'0 0.0
2017-Dec-10 09:30N 45°17' E 036°33'0 0.0
2017-Dec-10 09:00N 45°17' E 036°33'2 3.4
2017-Dec-10 08:30N 45°18' E 036°32'2 4.6
2017-Dec-10 08:00N 45°20' E 036°29'2 4.1
2017-Dec-10 07:30N 45°19' E 036°31'2 3.9
2017-Dec-10 07:00N 45°17' E 036°33'2 4.4
2017-Dec-10 06:30N 45°19' E 036°31'2 3.4
2017-Dec-10 06:00N 45°20' E 036°29'1 0.8
2017-Dec-10 04:59N 45°20' E 036°28'0 0.0
2017-Dec-09 16:35N 45°20' E 036°29'0 0.1
2017-Dec-09 15:25N 45°20' E 036°28'0 0.0
2017-Dec-09 14:58N 45°20' E 036°28'0 0.0
2017-Dec-09 14:27N 45°20' E 036°28'0 0.1
2017-Dec-09 13:57N 45°20' E 036°29'0 0.0
2017-Dec-09 13:27N 45°20' E 036°29'0 0.8
2017-Dec-09 13:00N 45°20' E 036°29'0 0.0
2017-Dec-09 12:27N 45°20' E 036°29'0 0.0
2017-Dec-09 11:57N 45°20' E 036°29'0 0.7
2017-Dec-09 11:29N 45°20' E 036°29'0 0.0
2017-Dec-09 04:14N 45°20' E 036°28'0 0.0
2017-Dec-08 23:32N 45°20' E 036°28'0 1.6
2017-Dec-08 23:30N 45°20' E 036°29'2 3.4
2017-Dec-08 23:00N 45°18' E 036°30'1 2.3
2017-Dec-08 22:28N 45°19' E 036°30'1 0.2
2017-Dec-08 16:37N 45°20' E 036°29'1 6.3
2017-Dec-08 16:30N 45°20' E 036°30'1 1.8
2017-Dec-08 15:59N 45°19' E 036°30'0 0.4
2017-Dec-08 15:30N 45°19' E 036°30'0 0.0
2017-Dec-08 15:00N 45°19' E 036°30'1 1.0
2017-Dec-08 14:30N 45°18' E 036°31'2 4.2
2017-Dec-08 14:00N 45°17' E 036°33'0 0.0
2017-Dec-08 13:30N 45°17' E 036°33'0 0.0
2017-Dec-08 13:00N 45°17' E 036°33'0 0.0
2017-Dec-08 12:30N 45°17' E 036°33'0 0.0
2017-Dec-08 12:00N 45°17' E 036°33'0 0.0
2017-Dec-08 11:30N 45°17' E 036°33'0 0.0
2017-Dec-08 11:00N 45°17' E 036°33'0 0.0
2017-Dec-08 10:30N 45°17' E 036°33'0 0.0
2017-Dec-08 10:00N 45°17' E 036°33'1 2.1
2017-Dec-08 09:29N 45°18' E 036°32'3 4.9
2017-Dec-08 08:55N 45°20' E 036°30'0 0.4
2017-Dec-08 08:29N 45°20' E 036°29'0 0.0
2017-Dec-08 07:32N 45°20' E 036°29'0 0.0
2017-Dec-08 07:29N 45°20' E 036°29'0 0.0
2017-Dec-08 06:47N 45°20' E 036°29'0 0.0
2017-Dec-08 06:29N 45°20' E 036°29'0 0.0
2017-Dec-08 05:56N 45°20' E 036°29'0 0.0
2017-Dec-08 05:29N 45°20' E 036°29'0 0.0
2017-Dec-08 04:59N 45°20' E 036°29'0 0.0
2017-Dec-08 04:26N 45°20' E 036°29'0 0.0
2017-Dec-08 03:59N 45°20' E 036°29'0 0.0
2017-Dec-08 03:29N 45°20' E 036°29'0 0.0
2017-Dec-08 02:59N 45°20' E 036°29'0 0.0
2017-Dec-08 02:29N 45°20' E 036°29'0 0.0
2017-Dec-08 01:59N 45°20' E 036°29'0 0.0
2017-Dec-08 01:26N 45°20' E 036°29'0 0.0
2017-Dec-08 00:56N 45°20' E 036°29'0 0.0
2017-Dec-08 00:20N 45°20' E 036°29'0 0.0
2017-Dec-07 23:56N 45°20' E 036°29'0 0.0
2017-Dec-07 23:14N 45°20' E 036°29'0 0.0
2017-Dec-07 22:59N 45°20' E 036°29'0 0.0
2017-Dec-07 22:29N 45°20' E 036°29'0 0.0
2017-Dec-07 21:59N 45°20' E 036°29'0 0.0
2017-Dec-07 21:29N 45°20' E 036°29'0 0.0
2017-Dec-07 20:59N 45°20' E 036°29'0 0.0
2017-Dec-07 20:29N 45°20' E 036°29'0 0.0
2017-Dec-07 19:59N 45°20' E 036°29'0 0.0
2017-Dec-07 19:29N 45°20' E 036°29'0 0.0
2017-Dec-07 18:59N 45°20' E 036°29'0 0.0
2017-Dec-07 18:30N 45°20' E 036°29'0 0.0
2017-Dec-07 18:00N 45°20' E 036°29'0 0.0
2017-Dec-07 17:31N 45°20' E 036°29'0 0.0
2017-Dec-07 16:57N 45°20' E 036°29'0 0.0
2017-Dec-07 16:31N 45°20' E 036°29'3 6.1
2017-Dec-07 16:00N 45°18' E 036°32'1 1.8
2017-Dec-07 15:31N 45°17' E 036°33'2 4.8
2017-Dec-07 15:00N 45°19' E 036°30'0 0.7
2017-Dec-07 14:27N 45°19' E 036°31'2 3.3
2017-Dec-07 13:57N 45°20' E 036°29'2 4.0
2017-Dec-07 13:30N 45°19' E 036°31'2 4.6
2017-Dec-07 13:00N 45°17' E 036°33'0 0.0
2017-Dec-07 12:31N 45°17' E 036°33'0 0.0
2017-Dec-07 12:01N 45°17' E 036°33'0 0.0
2017-Dec-07 11:30N 45°17' E 036°33'0 0.0
2017-Dec-07 11:00N 45°17' E 036°33'0 0.1
2017-Dec-07 10:31N 45°17' E 036°33'0 0.1
2017-Dec-07 10:00N 45°17' E 036°33'0 0.0
2017-Dec-07 09:31N 45°17' E 036°33'0 0.0
2017-Dec-07 09:00N 45°17' E 036°33'0 0.0
2017-Dec-07 08:30N 45°17' E 036°33'0 0.0
2017-Dec-07 08:00N 45°17' E 036°33'0 0.0
2017-Dec-07 07:30N 45°17' E 036°33'0 0.0
2017-Dec-07 07:01N 45°17' E 036°33'0 0.0
2017-Dec-07 06:30N 45°17' E 036°33'1 1.7
2017-Dec-07 06:00N 45°18' E 036°32'2 3.5
2017-Dec-07 05:30N 45°19' E 036°30'1 2.9
2017-Dec-07 05:01N 45°20' E 036°29'0 0.0
2017-Dec-07 04:30N 45°20' E 036°29'0 0.0
2017-Dec-07 04:01N 45°20' E 036°29'0 0.0
2017-Dec-07 03:30N 45°20' E 036°29'0 0.0
2017-Dec-07 03:01N 45°20' E 036°29'1 0.7
2017-Dec-07 02:01N 45°20' E 036°30'0 0.0
2017-Dec-07 02:00N 45°20' E 036°30'0 0.0
2017-Dec-07 01:30N 45°20' E 036°30'0 0.0
2017-Dec-07 00:56N 45°20' E 036°30'0 0.0
2017-Dec-07 00:29N 45°20' E 036°30'0 0.0
2017-Dec-06 23:49N 45°20' E 036°30'0 0.0
2017-Dec-06 23:30N 45°20' E 036°30'0 0.0
2017-Dec-06 23:00N 45°20' E 036°30'0 0.0
2017-Dec-06 22:10N 45°20' E 036°30'0 0.0
2017-Dec-06 22:00N 45°20' E 036°30'0 0.0
2017-Dec-06 21:29N 45°20' E 036°30'  
2017-Dec-04 10:30N 45°20' E 036°29'1 1.2
2017-Dec-04 10:00N 45°20' E 036°29'0 0.1
2017-Dec-04 09:21N 45°20' E 036°29'0 0.0
2017-Dec-04 08:45N 45°20' E 036°29'0 0.0
2017-Dec-04 08:30N 45°20' E 036°29'0 0.0
2017-Dec-04 07:30N 45°20' E 036°29'0 0.0
2017-Dec-04 06:57N 45°20' E 036°29'0 0.0
2017-Dec-04 06:18N 45°20' E 036°29'0 0.0
2017-Dec-04 05:57N 45°20' E 036°29'0 0.0
2017-Dec-04 01:21N 45°20' E 036°29'0 0.0
2017-Dec-04 01:00N 45°20' E 036°29'0 0.0
2017-Dec-04 00:30N 45°20' E 036°29'0 0.0
2017-Dec-03 23:57N 45°20' E 036°29'0 0.0
2017-Dec-03 22:33N 45°20' E 036°29'0 0.0
2017-Dec-03 21:12N 45°20' E 036°29'0 0.0
2017-Dec-03 20:12N 45°20' E 036°29'0 0.0
2017-Dec-03 20:00N 45°20' E 036°29'0 0.0
2017-Dec-03 15:56N 45°20' E 036°29'0 0.0
2017-Dec-03 15:00N 45°20' E 036°29'1 2.1
2017-Dec-03 14:30N 45°19' E 036°30'0 0.3
2017-Dec-03 14:00N 45°19' E 036°30'1 0.2
2017-Dec-03 11:19N 45°20' E 036°30'0 0.0
2017-Dec-03 11:00N 45°20' E 036°30'0 0.1
2017-Dec-03 10:31N 45°20' E 036°30'1 2.4
2017-Dec-03 10:00N 45°19' E 036°30'0 0.2
2017-Dec-03 09:30N 45°19' E 036°30'0 0.0
2017-Dec-03 09:00N 45°19' E 036°30'0 0.1
2017-Dec-03 08:30N 45°19' E 036°30'0 0.5
2017-Dec-03 08:01N 45°19' E 036°30'0 0.1
2017-Dec-03 07:31N 45°19' E 036°30'1 1.5
2017-Dec-03 06:59N 45°19' E 036°30'1 1.7
2017-Dec-03 06:31N 45°20' E 036°30'0 0.1
2017-Dec-03 06:01N 45°20' E 036°30'1 2.7
2017-Dec-03 05:30N 45°19' E 036°30'0 0.5
2017-Dec-03 05:00N 45°19' E 036°31'2 3.3
2017-Dec-03 04:31N 45°20' E 036°29'1 0.2
2017-Dec-03 02:13N 45°20' E 036°29'0 0.0
2017-Dec-02 20:00N 45°20' E 036°29'1 0.6
2017-Dec-02 17:29N 45°19' E 036°30'3 5.5
2017-Dec-02 17:01N 45°17' E 036°33'0 0.9
2017-Dec-02 16:31N 45°17' E 036°33'0 0.0
2017-Dec-02 16:01N 45°17' E 036°33'0 0.0
2017-Dec-02 15:31N 45°17' E 036°33'0 0.0
2017-Dec-02 15:01N 45°17' E 036°33'0 0.0
2017-Dec-02 14:31N 45°17' E 036°33'0 0.2
2017-Dec-02 14:00N 45°17' E 036°33'0 0.0
2017-Dec-02 13:31N 45°17' E 036°33'0 0.0
2017-Dec-02 13:00N 45°17' E 036°33'0 0.0
2017-Dec-02 12:31N 45°17' E 036°33'0 0.0
2017-Dec-02 12:00N 45°17' E 036°33'0 0.0
2017-Dec-02 11:31N 45°17' E 036°33'0 0.0
2017-Dec-02 11:01N 45°17' E 036°33'0 0.0
2017-Dec-02 10:31N 45°17' E 036°33'0 0.0
2017-Dec-02 10:01N 45°17' E 036°33'0 0.0
2017-Dec-02 09:30N 45°17' E 036°33'2 4.0
2017-Dec-02 09:00N 45°18' E 036°31'2 3.5
2017-Dec-02 08:24N 45°20' E 036°29'1 1.3
2017-Dec-02 08:01N 45°20' E 036°29'1 1.4
2017-Dec-02 07:30N 45°19' E 036°30'0 0.0
2017-Dec-02 07:01N 45°19' E 036°30'0 0.0
2017-Dec-02 06:31N 45°19' E 036°30'0 0.0
2017-Dec-02 06:01N 45°19' E 036°30'0 0.6
2017-Dec-02 05:31N 45°20' E 036°30'0 0.6
2017-Dec-02 05:00N 45°20' E 036°29'0 0.3
2017-Dec-02 04:19N 45°20' E 036°29'0 0.0
2017-Dec-02 00:23N 45°20' E 036°29'0 0.0
2017-Dec-01 23:59N 45°20' E 036°29'0 0.0
2017-Dec-01 23:24N 45°20' E 036°29'0 0.0
2017-Dec-01 23:01N 45°20' E 036°29'0 0.0
2017-Dec-01 21:23N 45°20' E 036°29'0 0.0
2017-Dec-01 20:59N 45°20' E 036°29'0 0.0
2017-Dec-01 20:18N 45°20' E 036°29'0 0.0
2017-Dec-01 20:00N 45°20' E 036°29'0 0.0
2017-Dec-01 19:16N 45°20' E 036°29'0 0.0
2017-Dec-01 18:50N 45°20' E 036°29'0 0.0
2017-Dec-01 18:21N 45°20' E 036°29'0 0.0
2017-Dec-01 18:00N 45°20' E 036°29'0 0.0
2017-Dec-01 17:29N 45°20' E 036°29'  

Dump ship's entire track history